Página principal
METAR-TAF:

METAR-TAF

Aeroportos :

Londres-Heathrow, Inglaterra

Aeroporto de Londres-Heathrow

latitude: 51-29N, longitude: 000-27W, altura: 24 m

Observação actual do tempo

O boletim foi feito há 39 minutos, às 11:20 UTC
Vento 12 kt de es-nordeste
Temperatura 4°C
Humidade 65%
Pressão 1022 hPa
Visibilidade 10 km ou mais

METAR: EGLL 241120Z AUTO 07012KT 9999 NCD 04/M02 Q1022 NOSIG

Hora: 11:59 (11:59 UTC)

Previsão

O boletim foi feito há 1 hora e 5 minutos, às 10:54 UTC
Previsão válida de 24 às 12 UTC a 25 às 18 UTC
Vento 10 kt de este
Visibilidade 10 km ou mais
Poucas nuvensa uma altura de 2500 ft
Probabilidade 40% :
Temporariamente
de 24 às 14 UTC a 24 às 21 UTC
Vento 15 kt de este com rajadas de 25 kt

TAF: EGLL 241054Z 2412/2518 08010KT 9999 FEW025 PROB40 TEMPO 2414/2421 08015G25KT

Observações e previsões do tempo de mais de 4000 aeroportos (mensagens METAR e TAF).

As estações disponíveis são os pontos amarelos e vermelhos sobre o mapa.

Mova o rato sobre o mapa para ver o nome da estação.

Depois clique no ponto para visualizar as observações e previsões meteorológicas.

Para alterar o mapa : clique nos botões verdes com uma cruz preta para aumentar o zoom; no botão verde com uma pitada de zoom; ou nas setas verdes para mapas adjacentes.


METAR-TAF: